sensor_id;sensor_type;location;lat;lon;timestamp;temperature;humidity
47845;DHT22;33605;48.822;8.796;2023-04-21T00:01:11;9.40;59.50
47845;DHT22;33605;48.822;8.796;2023-04-21T00:03:38;9.30;59.60
47845;DHT22;33605;48.822;8.796;2023-04-21T00:06:06;9.30;59.70
47845;DHT22;33605;48.822;8.796;2023-04-21T00:08:34;9.30;59.80
47845;DHT22;33605;48.822;8.796;2023-04-21T00:11:05;9.20;59.80
47845;DHT22;33605;48.822;8.796;2023-04-21T00:13:30;9.20;59.90
47845;DHT22;33605;48.822;8.796;2023-04-21T00:15:56;9.20;60.00
47845;DHT22;33605;48.822;8.796;2023-04-21T00:18:21;9.10;60.00
47845;DHT22;33605;48.822;8.796;2023-04-21T00:20:47;9.10;60.10
47845;DHT22;33605;48.822;8.796;2023-04-21T00:23:13;9.00;60.00
47845;DHT22;33605;48.822;8.796;2023-04-21T00:25:38;9.00;60.00
47845;DHT22;33605;48.822;8.796;2023-04-21T00:28:04;8.90;60.00
47845;DHT22;33605;48.822;8.796;2023-04-21T00:30:29;8.90;60.00
47845;DHT22;33605;48.822;8.796;2023-04-21T00:32:55;8.90;60.00
47845;DHT22;33605;48.822;8.796;2023-04-21T00:35:20;8.90;60.00
47845;DHT22;33605;48.822;8.796;2023-04-21T00:37:46;8.90;60.10
47845;DHT22;33605;48.822;8.796;2023-04-21T00:40:11;8.90;60.10
47845;DHT22;33605;48.822;8.796;2023-04-21T00:42:38;8.90;60.00
47845;DHT22;33605;48.822;8.796;2023-04-21T00:45:04;8.90;60.00
47845;DHT22;33605;48.822;8.796;2023-04-21T00:47:30;8.90;60.00
47845;DHT22;33605;48.822;8.796;2023-04-21T00:49:56;8.90;59.90
47845;DHT22;33605;48.822;8.796;2023-04-21T00:52:22;8.90;60.20
47845;DHT22;33605;48.822;8.796;2023-04-21T00:54:49;8.90;59.60
47845;DHT22;33605;48.822;8.796;2023-04-21T00:57:14;8.90;59.40
47845;DHT22;33605;48.822;8.796;2023-04-21T00:59:40;8.80;59.20
47845;DHT22;33605;48.822;8.796;2023-04-21T01:02:06;8.90;59.20
47845;DHT22;33605;48.822;8.796;2023-04-21T01:04:31;8.80;59.10
47845;DHT22;33605;48.822;8.796;2023-04-21T01:07:02;8.80;58.90
47845;DHT22;33605;48.822;8.796;2023-04-21T01:09:28;8.80;58.70
47845;DHT22;33605;48.822;8.796;2023-04-21T01:12:03;8.80;58.50
47845;DHT22;33605;48.822;8.796;2023-04-21T01:14:29;8.80;58.20
47845;DHT22;33605;48.822;8.796;2023-04-21T01:16:56;8.80;58.10
47845;DHT22;33605;48.822;8.796;2023-04-21T01:19:22;8.70;57.90
47845;DHT22;33605;48.822;8.796;2023-04-21T01:21:47;8.70;57.80
47845;DHT22;33605;48.822;8.796;2023-04-21T01:24:13;8.60;57.70
47845;DHT22;33605;48.822;8.796;2023-04-21T01:26:39;8.60;57.70
47845;DHT22;33605;48.822;8.796;2023-04-21T01:29:04;8.50;57.70
47845;DHT22;33605;48.822;8.796;2023-04-21T01:31:30;8.40;57.50
47845;DHT22;33605;48.822;8.796;2023-04-21T01:33:55;8.40;57.60
47845;DHT22;33605;48.822;8.796;2023-04-21T01:36:21;8.30;57.60
47845;DHT22;33605;48.822;8.796;2023-04-21T01:38:47;8.30;57.60
47845;DHT22;33605;48.822;8.796;2023-04-21T01:41:12;8.20;57.40
47845;DHT22;33605;48.822;8.796;2023-04-21T01:43:38;8.10;57.20
47845;DHT22;33605;48.822;8.796;2023-04-21T01:46:05;8.00;57.20
47845;DHT22;33605;48.822;8.796;2023-04-21T01:48:30;8.00;57.40
47845;DHT22;33605;48.822;8.796;2023-04-21T01:50:56;7.90;57.40
47845;DHT22;33605;48.822;8.796;2023-04-21T01:53:21;7.90;57.60
47845;DHT22;33605;48.822;8.796;2023-04-21T01:55:47;7.80;57.60
47845;DHT22;33605;48.822;8.796;2023-04-21T01:58:13;7.80;57.80
47845;DHT22;33605;48.822;8.796;2023-04-21T02:00:38;7.80;58.10
47845;DHT22;33605;48.822;8.796;2023-04-21T02:03:04;7.80;58.20
47845;DHT22;33605;48.822;8.796;2023-04-21T02:05:29;7.70;58.20
47845;DHT22;33605;48.822;8.796;2023-04-21T02:07:55;7.70;58.40
47845;DHT22;33605;48.822;8.796;2023-04-21T02:10:20;7.70;58.40
47845;DHT22;33605;48.822;8.796;2023-04-21T02:12:46;7.70;58.50
47845;DHT22;33605;48.822;8.796;2023-04-21T02:15:12;7.70;58.50
47845;DHT22;33605;48.822;8.796;2023-04-21T02:17:37;7.70;58.60
47845;DHT22;33605;48.822;8.796;2023-04-21T02:20:04;7.70;58.70
47845;DHT22;33605;48.822;8.796;2023-04-21T02:22:29;7.70;58.70
47845;DHT22;33605;48.822;8.796;2023-04-21T02:24:55;7.70;58.90
47845;DHT22;33605;48.822;8.796;2023-04-21T02:27:21;7.80;59.10
47845;DHT22;33605;48.822;8.796;2023-04-21T02:29:46;7.70;59.00
47845;DHT22;33605;48.822;8.796;2023-04-21T02:32:12;7.80;59.10
47845;DHT22;33605;48.822;8.796;2023-04-21T02:34:37;7.80;59.00
47845;DHT22;33605;48.822;8.796;2023-04-21T02:37:03;7.80;59.00
47845;DHT22;33605;48.822;8.796;2023-04-21T02:39:29;7.80;59.00
47845;DHT22;33605;48.822;8.796;2023-04-21T02:41:55;7.80;58.90
47845;DHT22;33605;48.822;8.796;2023-04-21T02:44:21;7.80;58.70
47845;DHT22;33605;48.822;8.796;2023-04-21T02:46:46;7.80;58.70
47845;DHT22;33605;48.822;8.796;2023-04-21T02:49:12;7.80;58.60
47845;DHT22;33605;48.822;8.796;2023-04-21T02:51:37;7.80;58.70
47845;DHT22;33605;48.822;8.796;2023-04-21T02:54:03;7.80;58.80
47845;DHT22;33605;48.822;8.796;2023-04-21T02:56:28;7.80;58.90
47845;DHT22;33605;48.822;8.796;2023-04-21T02:58:54;7.80;59.00
47845;DHT22;33605;48.822;8.796;2023-04-21T03:01:20;7.90;59.10
47845;DHT22;33605;48.822;8.796;2023-04-21T03:03:45;7.80;59.10
47845;DHT22;33605;48.822;8.796;2023-04-21T03:06:11;7.90;59.30
47845;DHT22;33605;48.822;8.796;2023-04-21T03:08:36;7.90;59.30
47845;DHT22;33605;48.822;8.796;2023-04-21T03:11:02;7.90;59.40
47845;DHT22;33605;48.822;8.796;2023-04-21T03:13:27;7.90;59.50
47845;DHT22;33605;48.822;8.796;2023-04-21T03:15:53;7.90;59.60
47845;DHT22;33605;48.822;8.796;2023-04-21T03:18:18;7.90;59.70
47845;DHT22;33605;48.822;8.796;2023-04-21T03:20:44;7.90;59.80
47845;DHT22;33605;48.822;8.796;2023-04-21T03:23:10;7.90;59.90
47845;DHT22;33605;48.822;8.796;2023-04-21T03:25:37;7.90;60.00
47845;DHT22;33605;48.822;8.796;2023-04-21T03:28:03;7.90;60.10
47845;DHT22;33605;48.822;8.796;2023-04-21T03:30:28;8.00;60.20
47845;DHT22;33605;48.822;8.796;2023-04-21T03:32:54;8.00;60.20
47845;DHT22;33605;48.822;8.796;2023-04-21T03:35:23;8.00;60.30
47845;DHT22;33605;48.822;8.796;2023-04-21T03:37:48;8.10;60.30
47845;DHT22;33605;48.822;8.796;2023-04-21T03:40:14;8.10;60.30
47845;DHT22;33605;48.822;8.796;2023-04-21T03:42:40;8.10;60.10
47845;DHT22;33605;48.822;8.796;2023-04-21T03:45:07;8.10;60.00
47845;DHT22;33605;48.822;8.796;2023-04-21T03:47:33;8.10;60.00
47845;DHT22;33605;48.822;8.796;2023-04-21T03:49:58;8.10;59.80
47845;DHT22;33605;48.822;8.796;2023-04-21T03:52:24;8.10;59.80
47845;DHT22;33605;48.822;8.796;2023-04-21T03:54:50;8.20;59.70
47845;DHT22;33605;48.822;8.796;2023-04-21T03:57:15;8.20;59.70
47845;DHT22;33605;48.822;8.796;2023-04-21T03:59:41;8.10;59.50
47845;DHT22;33605;48.822;8.796;2023-04-21T04:02:07;8.20;59.50
47845;DHT22;33605;48.822;8.796;2023-04-21T04:04:35;8.20;59.50
47845;DHT22;33605;48.822;8.796;2023-04-21T04:07:01;8.20;59.40
47845;DHT22;33605;48.822;8.796;2023-04-21T04:09:27;8.10;59.30
47845;DHT22;33605;48.822;8.796;2023-04-21T04:11:53;8.20;59.40
47845;DHT22;33605;48.822;8.796;2023-04-21T04:14:19;8.20;59.30
47845;DHT22;33605;48.822;8.796;2023-04-21T04:16:44;8.20;59.20
47845;DHT22;33605;48.822;8.796;2023-04-21T04:19:10;8.20;59.10
47845;DHT22;33605;48.822;8.796;2023-04-21T04:21:36;8.20;58.90
47845;DHT22;33605;48.822;8.796;2023-04-21T04:24:02;8.10;58.70
47845;DHT22;33605;48.822;8.796;2023-04-21T04:26:29;8.20;58.50
47845;DHT22;33605;48.822;8.796;2023-04-21T04:28:58;8.20;58.30
47845;DHT22;33605;48.822;8.796;2023-04-21T04:31:24;8.10;58.00
47845;DHT22;33605;48.822;8.796;2023-04-21T04:33:51;8.10;57.70
47845;DHT22;33605;48.822;8.796;2023-04-21T04:36:16;8.10;57.50
47845;DHT22;33605;48.822;8.796;2023-04-21T04:38:42;8.10;57.40
47845;DHT22;33605;48.822;8.796;2023-04-21T04:41:08;8.10;57.10
47845;DHT22;33605;48.822;8.796;2023-04-21T04:43:34;8.10;57.00
47845;DHT22;33605;48.822;8.796;2023-04-21T04:46:03;8.00;56.80
47845;DHT22;33605;48.822;8.796;2023-04-21T04:48:29;8.00;56.90
47845;DHT22;33605;48.822;8.796;2023-04-21T04:50:54;7.90;56.90
47845;DHT22;33605;48.822;8.796;2023-04-21T04:53:20;7.90;57.00
47845;DHT22;33605;48.822;8.796;2023-04-21T04:55:45;7.90;57.00
47845;DHT22;33605;48.822;8.796;2023-04-21T04:58:11;7.90;57.00
47845;DHT22;33605;48.822;8.796;2023-04-21T05:00:37;7.80;57.00
47845;DHT22;33605;48.822;8.796;2023-04-21T05:03:03;7.80;57.00
47845;DHT22;33605;48.822;8.796;2023-04-21T05:05:29;7.80;57.00
47845;DHT22;33605;48.822;8.796;2023-04-21T05:07:55;7.80;57.10
47845;DHT22;33605;48.822;8.796;2023-04-21T05:10:21;7.80;57.30
47845;DHT22;33605;48.822;8.796;2023-04-21T05:12:47;7.80;57.30
47845;DHT22;33605;48.822;8.796;2023-04-21T05:15:13;7.70;57.30
47845;DHT22;33605;48.822;8.796;2023-04-21T05:17:38;7.80;57.30
47845;DHT22;33605;48.822;8.796;2023-04-21T05:20:05;7.70;57.20
47845;DHT22;33605;48.822;8.796;2023-04-21T05:22:30;7.70;57.30
47845;DHT22;33605;48.822;8.796;2023-04-21T05:24:56;7.70;57.40
47845;DHT22;33605;48.822;8.796;2023-04-21T05:27:22;7.70;57.50
47845;DHT22;33605;48.822;8.796;2023-04-21T05:29:47;7.70;57.50
47845;DHT22;33605;48.822;8.796;2023-04-21T05:32:13;7.70;57.60
47845;DHT22;33605;48.822;8.796;2023-04-21T05:34:38;7.70;57.70
47845;DHT22;33605;48.822;8.796;2023-04-21T05:37:04;7.70;57.70
47845;DHT22;33605;48.822;8.796;2023-04-21T05:39:29;7.70;57.80
47845;DHT22;33605;48.822;8.796;2023-04-21T05:41:55;7.70;58.00
47845;DHT22;33605;48.822;8.796;2023-04-21T05:44:21;7.70;58.10
47845;DHT22;33605;48.822;8.796;2023-04-21T05:46:46;7.70;58.10
47845;DHT22;33605;48.822;8.796;2023-04-21T05:49:12;7.70;58.20
47845;DHT22;33605;48.822;8.796;2023-04-21T05:51:38;7.70;58.40
47845;DHT22;33605;48.822;8.796;2023-04-21T05:54:03;7.80;58.60
47845;DHT22;33605;48.822;8.796;2023-04-21T05:56:29;7.80;58.60
47845;DHT22;33605;48.822;8.796;2023-04-21T05:58:54;7.80;58.60
47845;DHT22;33605;48.822;8.796;2023-04-21T06:01:20;7.80;58.60
47845;DHT22;33605;48.822;8.796;2023-04-21T06:03:46;7.80;58.70
47845;DHT22;33605;48.822;8.796;2023-04-21T06:06:14;7.80;58.80
47845;DHT22;33605;48.822;8.796;2023-04-21T06:08:40;7.80;58.80
47845;DHT22;33605;48.822;8.796;2023-04-21T06:11:06;7.80;59.00
47845;DHT22;33605;48.822;8.796;2023-04-21T06:13:31;7.80;59.10
47845;DHT22;33605;48.822;8.796;2023-04-21T06:15:57;7.80;59.20
47845;DHT22;33605;48.822;8.796;2023-04-21T06:18:22;7.90;59.50
47845;DHT22;33605;48.822;8.796;2023-04-21T06:20:57;7.90;59.60
47845;DHT22;33605;48.822;8.796;2023-04-21T06:23:23;7.90;59.60
47845;DHT22;33605;48.822;8.796;2023-04-21T06:25:59;7.90;59.60
47845;DHT22;33605;48.822;8.796;2023-04-21T06:28:25;7.90;59.70
47845;DHT22;33605;48.822;8.796;2023-04-21T06:30:51;7.90;59.70
47845;DHT22;33605;48.822;8.796;2023-04-21T06:33:16;8.00;59.90
47845;DHT22;33605;48.822;8.796;2023-04-21T06:35:42;8.00;60.00
47845;DHT22;33605;48.822;8.796;2023-04-21T06:38:08;8.10;60.10
47845;DHT22;33605;48.822;8.796;2023-04-21T06:40:33;8.10;60.60
47845;DHT22;33605;48.822;8.796;2023-04-21T06:42:59;8.10;60.20
47845;DHT22;33605;48.822;8.796;2023-04-21T06:45:24;8.20;60.40
47845;DHT22;33605;48.822;8.796;2023-04-21T06:47:50;8.20;60.40
47845;DHT22;33605;48.822;8.796;2023-04-21T06:50:15;8.20;60.40
47845;DHT22;33605;48.822;8.796;2023-04-21T06:52:41;8.30;60.50
47845;DHT22;33605;48.822;8.796;2023-04-21T06:55:07;8.30;60.50
47845;DHT22;33605;48.822;8.796;2023-04-21T06:57:32;8.40;60.60
47845;DHT22;33605;48.822;8.796;2023-04-21T06:59:58;8.40;60.60
47845;DHT22;33605;48.822;8.796;2023-04-21T07:02:23;8.50;60.90
47845;DHT22;33605;48.822;8.796;2023-04-21T07:04:49;8.50;61.00
47845;DHT22;33605;48.822;8.796;2023-04-21T07:07:14;8.60;61.10
47845;DHT22;33605;48.822;8.796;2023-04-21T07:09:40;8.60;61.10
47845;DHT22;33605;48.822;8.796;2023-04-21T07:12:05;8.70;61.20
47845;DHT22;33605;48.822;8.796;2023-04-21T07:14:31;8.70;61.20
47845;DHT22;33605;48.822;8.796;2023-04-21T07:16:57;8.80;61.50
47845;DHT22;33605;48.822;8.796;2023-04-21T07:19:22;8.80;61.60
47845;DHT22;33605;48.822;8.796;2023-04-21T07:21:48;8.90;61.60
47845;DHT22;33605;48.822;8.796;2023-04-21T07:24:13;9.00;62.10
47845;DHT22;33605;48.822;8.796;2023-04-21T07:26:39;9.00;61.80
47845;DHT22;33605;48.822;8.796;2023-04-21T07:29:04;9.10;62.00
47845;DHT22;33605;48.822;8.796;2023-04-21T07:31:30;9.10;62.10
47845;DHT22;33605;48.822;8.796;2023-04-21T07:33:56;9.20;62.40
47845;DHT22;33605;48.822;8.796;2023-04-21T07:36:21;9.30;62.70
47845;DHT22;33605;48.822;8.796;2023-04-21T07:38:47;9.40;63.20
47845;DHT22;33605;48.822;8.796;2023-04-21T07:41:12;9.50;63.30
